Terminal Aerodrome Forecast
Issued by NWS Sterling, VA

Home | Current Version | Previous Version | Text Only | Print | Product List | Glossary On
Versions: 1 2 3 4 5 6 7 8 9 10 11 12 13 14 15 16 17 18 19 20 21 22 23 24 25
000
FTUS41 KLWX 312300 RRA
TAFDCA
TAF
KDCA 312345Z 0100/0124 02005KT P6SM SCT060
     FM010200 03005KT P6SM BKN070
     FM011200 35008KT 3SM -SHRA OVC030
     FM011400 36012KT 3SM -SHRA OVC015
     FM011800 35018G26KT 6SM -SHRA OVC015
     FM012100 34018G26KT P6SM OVC025=

USA.gov is the U.S. government's official web portal to all federal, state and local government web resources and services.